Time;durP1;ratioP1;P1;durP2;ratioP2;P2;SDS_P1;SDS_P2;PMS_P1;PMS_P2;Temp;Humidity;BMP_temperature;BMP_pressure;BME280_temperature;BME280_humidity;BME280_pressure;Samples;Min_cycle;Max_cycle;Signal;HPM_P1;HPM_P2
2021/07/02 00:01:07;;;;;;;20.77;18.45;;;;;;;22.84;71.31;98804.41;5090302;28;20446;-74
2021/07/02 00:03:32;;;;;;;28.83;15.63;;;;;;;22.83;71.09;98797.09;5090079;28;20093;-74
2021/07/02 00:05:58;;;;;;;20.95;13.15;;;;;;;23.05;68.52;98791.00;5096537;28;20035;-74
2021/07/02 00:08:26;;;;;;;18.10;12.23;;;;;;;23.18;67.34;98776.88;5105285;28;20035;-74
2021/07/02 00:10:55;;;;;;;24.17;12.57;;;;;;;23.12;67.57;98779.41;5098981;28;20028;-74
2021/07/02 00:13:20;;;;;;;22.08;13.52;;;;;;;22.71;69.25;98772.06;5104347;28;20097;-74
2021/07/02 00:15:46;;;;;;;26.60;13.52;;;;;;;22.64;68.82;98769.34;5118548;27;20028;-74
2021/07/02 00:18:11;;;;;;;22.10;12.65;;;;;;;22.58;69.39;98763.34;5094678;28;20036;-74
2021/07/02 00:20:37;;;;;;;25.23;13.50;;;;;;;22.66;69.82;98764.00;5092188;28;20128;-74
2021/07/02 00:23:03;;;;;;;22.95;13.18;;;;;;;22.60;70.48;98768.63;5094922;28;20024;-74
2021/07/02 00:25:28;;;;;;;27.40;14.68;;;;;;;22.72;69.24;98768.78;5109639;28;20047;-75
2021/07/02 00:27:56;;;;;;;26.52;12.60;;;;;;;22.79;68.72;98764.97;5108940;28;20485;-74
2021/07/02 00:30:22;;;;;;;25.25;12.73;;;;;;;22.43;68.85;98751.34;5109336;28;20413;-74
2021/07/02 00:32:47;;;;;;;25.95;13.23;;;;;;;22.31;69.63;98761.34;5103388;28;20107;-74
2021/07/02 00:35:13;;;;;;;20.92;11.73;;;;;;;22.24;69.62;98755.75;5109462;28;20472;-74
2021/07/02 00:37:38;;;;;;;19.25;10.95;;;;;;;22.14;69.67;98758.38;5108550;28;20019;-74
2021/07/02 00:40:04;;;;;;;19.45;11.88;;;;;;;22.30;69.70;98754.81;5109116;28;20108;-73
2021/07/02 00:42:30;;;;;;;16.65;10.63;;;;;;;22.26;69.47;98759.78;5114466;27;20384;-74
2021/07/02 00:44:55;;;;;;;19.23;11.13;;;;;;;22.38;68.53;98769.75;5107884;28;20221;-74
2021/07/02 00:47:21;;;;;;;22.02;10.63;;;;;;;22.32;68.68;98759.28;5107614;28;20031;-74
2021/07/02 00:49:47;;;;;;;23.17;10.80;;;;;;;22.18;69.46;98775.38;5111145;28;20102;-74
2021/07/02 00:52:14;;;;;;;31.27;12.50;;;;;;;21.97;71.12;98776.53;5111263;28;20144;-74
2021/07/02 00:54:41;;;;;;;22.42;11.35;;;;;;;22.05;70.10;98780.06;5112059;28;20511;-74
2021/07/02 00:57:09;;;;;;;22.38;10.55;;;;;;;22.09;69.38;98775.13;5128605;27;20552;-74
2021/07/02 00:59:34;;;;;;;25.38;10.80;;;;;;;22.10;68.59;98771.03;5111614;27;20069;-74
2021/07/02 01:02:00;;;;;;;25.95;11.35;;;;;;;21.91;68.77;98767.66;5105895;28;20028;-74
2021/07/02 01:04:26;;;;;;;17.00;9.48;;;;;;;22.01;68.34;98763.84;5102126;28;20059;-73
2021/07/02 01:06:54;;;;;;;27.00;11.52;;;;;;;21.83;69.10;98749.06;5098644;27;20168;-74
2021/07/02 01:09:24;;;;;;;20.27;10.30;;;;;;;21.52;70.05;98760.47;5099577;28;20023;-73
2021/07/02 01:11:49;;;;;;;22.77;10.82;;;;;;;21.38;70.78;98764.31;5111561;28;20050;-74
2021/07/02 01:14:15;;;;;;;23.50;11.18;;;;;;;21.37;70.73;98768.38;5113514;27;20470;-74
2021/07/02 01:16:41;;;;;;;27.45;12.00;;;;;;;21.28;70.79;98766.84;5101319;28;20153;-73
2021/07/02 01:19:06;;;;;;;24.42;9.60;;;;;;;21.32;70.65;98781.03;5097652;28;20032;-74
2021/07/02 01:21:33;;;;;;;24.73;12.25;;;;;;;21.31;71.39;98779.44;5104346;28;20023;-73
2021/07/02 01:23:58;;;;;;;26.98;12.18;;;;;;;21.40;70.58;98788.25;5111085;28;20023;-73
2021/07/02 01:26:24;;;;;;;30.38;10.43;;;;;;;21.48;69.96;98782.44;5104668;28;20039;-74
2021/07/02 01:28:50;;;;;;;27.65;10.85;;;;;;;21.21;70.85;98783.19;5101546;28;20023;-74
2021/07/02 01:31:16;;;;;;;32.35;11.73;;;;;;;21.15;70.90;98789.38;5097323;28;20035;-73
2021/07/02 01:33:41;;;;;;;30.85;11.55;;;;;;;21.17;70.67;98788.91;5100014;28;20035;-73
2021/07/02 01:36:08;;;;;;;21.17;10.60;;;;;;;21.03;70.74;98787.88;5105756;27;20044;-74
2021/07/02 01:38:35;;;;;;;37.97;12.20;;;;;;;21.11;70.73;98802.00;5100396;28;20064;-73
2021/07/02 01:41:00;;;;;;;28.75;12.48;;;;;;;20.80;71.83;98801.88;5100666;28;20106;-73
2021/07/02 01:43:27;;;;;;;23.85;11.68;;;;;;;20.71;72.63;98796.69;5119778;27;20569;-73
2021/07/02 01:45:53;;;;;;;36.78;14.88;;;;;;;20.73;72.68;98799.94;5117289;27;20595;-74
2021/07/02 01:48:19;;;;;;;26.83;12.98;;;;;;;20.72;72.90;98804.00;5105555;28;20036;-74
2021/07/02 01:50:44;;;;;;;38.83;12.05;;;;;;;20.63;72.95;98795.97;5105315;28;20028;-73
2021/07/02 01:53:10;;;;;;;37.33;12.75;;;;;;;20.62;71.95;98800.81;5108743;28;20047;-74
2021/07/02 01:55:35;;;;;;;40.53;13.32;;;;;;;20.60;71.53;98794.75;5113890;27;20464;-73
2021/07/02 01:58:01;;;;;;;29.73;13.00;;;;;;;20.65;71.78;98804.88;5112133;27;20432;-73
2021/07/02 02:00:26;;;;;;;26.90;11.30;;;;;;;20.58;71.71;98800.06;5110442;28;20024;-74
2021/07/02 02:02:52;;;;;;;29.50;11.55;;;;;;;20.79;71.07;98803.94;5115076;27;20015;-74
2021/07/02 02:05:17;;;;;;;33.50;11.98;;;;;;;20.89;70.29;98814.41;5106091;28;20023;-74
2021/07/02 02:07:43;;;;;;;39.67;11.98;;;;;;;20.84;70.57;98819.75;5106704;28;20459;-74
2021/07/02 02:10:09;;;;;;;36.90;11.35;;;;;;;21.06;70.10;98816.66;5118989;27;20023;-74
2021/07/02 02:12:34;;;;;;;29.67;11.30;;;;;;;20.85;71.60;98818.53;5105470;28;20058;-74
2021/07/02 02:15:00;;;;;;;20.20;10.88;;;;;;;20.88;71.77;98818.50;5109191;28;20106;-74
2021/07/02 02:17:25;;;;;;;19.27;10.57;;;;;;;20.89;71.04;98822.13;5099024;28;20047;-74
2021/07/02 02:19:50;;;;;;;27.27;11.20;;;;;;;21.10;70.35;98820.28;5099834;28;20047;-74
2021/07/02 02:22:16;;;;;;;27.92;11.38;;;;;;;21.23;70.37;98814.84;5103669;28;20027;-74
2021/07/02 02:24:41;;;;;;;16.38;11.20;;;;;;;21.51;68.39;98818.59;5108003;28;20096;-74
2021/07/02 02:27:09;;;;;;;17.75;9.07;;;;;;;21.40;68.56;98818.72;5102700;28;20055;-77
2021/07/02 02:29:35;;;;;;;20.50;9.63;;;;;;;21.45;68.28;98821.91;5111741;28;20106;-73
2021/07/02 02:32:00;;;;;;;33.08;10.93;;;;;;;21.40;67.27;98819.53;5111495;28;20408;-77
2021/07/02 02:34:26;;;;;;;22.27;10.00;;;;;;;21.18;68.71;98825.47;5113233;27;20555;-73
2021/07/02 02:36:51;;;;;;;22.00;10.60;;;;;;;21.18;68.66;98825.47;5110172;28;20107;-75
2021/07/02 02:39:17;;;;;;;27.52;11.70;;;;;;;21.29;68.33;98821.69;5102437;28;20036;-73
2021/07/02 02:41:43;;;;;;;24.15;10.30;;;;;;;21.13;68.52;98820.25;5096308;28;20078;-72
2021/07/02 02:44:08;;;;;;;22.65;10.25;;;;;;;21.12;68.56;98830.03;5101504;28;20122;-72
2021/07/02 02:46:35;;;;;;;26.48;10.50;;;;;;;21.00;68.74;98830.56;5098262;28;20024;-71
2021/07/02 02:49:00;;;;;;;20.55;9.93;;;;;;;21.11;68.77;98833.28;5090536;28;20040;-76
2021/07/02 02:51:26;;;;;;;29.30;12.30;;;;;;;21.18;68.34;98827.53;5100268;28;20046;-76
2021/07/02 02:53:51;;;;;;;21.38;9.82;;;;;;;21.16;67.91;98839.31;5099677;27;20026;-73
2021/07/02 02:56:17;;;;;;;26.30;10.32;;;;;;;21.07;67.58;98841.84;5096042;28;20039;-74
2021/07/02 02:58:42;;;;;;;38.30;10.38;;;;;;;21.21;67.84;98854.28;5109401;28;20469;-76
2021/07/02 03:01:08;;;;;;;27.48;9.98;;;;;;;21.17;67.71;98852.28;5107888;27;20094;-74
2021/07/02 03:03:34;;;;;;;16.98;9.85;;;;;;;21.26;66.69;98846.09;5102815;28;20067;-75
2021/07/02 03:05:59;;;;;;;21.65;9.85;;;;;;;21.41;66.22;98845.94;5094680;28;20085;-75
2021/07/02 03:08:25;;;;;;;14.73;9.02;;;;;;;21.39;66.51;98843.53;5088415;28;20028;-75
2021/07/02 03:10:50;;;;;;;20.42;8.93;;;;;;;21.42;65.91;98851.19;5097479;28;20070;-75
2021/07/02 03:13:16;;;;;;;19.08;9.40;;;;;;;21.33;66.43;98853.75;5114245;27;20058;-75
2021/07/02 03:15:41;;;;;;;27.88;9.38;;;;;;;21.37;65.99;98854.53;5097441;28;20024;-75
2021/07/02 03:18:06;;;;;;;21.05;9.20;;;;;;;21.24;67.39;98859.16;5090911;28;20035;-75
2021/07/02 03:20:32;;;;;;;21.08;8.77;;;;;;;21.39;66.42;98854.09;5098089;28;20092;-75
2021/07/02 03:22:57;;;;;;;23.77;10.00;;;;;;;21.42;66.54;98862.59;5102017;28;20031;-75
2021/07/02 03:25:23;;;;;;;21.00;9.60;;;;;;;21.35;66.65;98859.81;5104168;28;20016;-75
2021/07/02 03:27:48;;;;;;;20.58;10.45;;;;;;;21.20;67.54;98867.72;5100223;28;20063;-75
2021/07/02 03:30:15;;;;;;;21.05;9.45;;;;;;;21.23;67.13;98871.72;5104821;28;20434;-75
2021/07/02 03:32:40;;;;;;;16.75;10.48;;;;;;;21.22;66.92;98858.75;5093490;28;20111;-75
2021/07/02 03:35:08;;;;;;;21.00;9.60;;;;;;;21.24;66.85;98864.84;5087200;28;20127;-75
2021/07/02 03:37:33;;;;;;;17.10;9.18;;;;;;;21.19;67.15;98863.25;5096372;28;20034;-74
2021/07/02 03:40:00;;;;;;;19.33;9.85;;;;;;;21.15;67.07;98866.13;5106356;28;20102;-75
2021/07/02 03:42:25;;;;;;;18.67;9.38;;;;;;;21.08;67.52;98871.88;5110108;28;20028;-75
2021/07/02 03:44:51;;;;;;;24.15;9.05;;;;;;;21.23;67.25;98871.72;5102553;28;20058;-75
2021/07/02 03:47:17;;;;;;;21.95;9.68;;;;;;;21.13;67.42;98865.75;5096627;28;20032;-76
2021/07/02 03:49:43;;;;;;;28.85;10.70;;;;;;;21.17;67.53;98868.53;5099274;28;20043;-75
2021/07/02 03:52:08;;;;;;;26.42;10.48;;;;;;;21.24;67.35;98862.78;5104450;28;20023;-75
2021/07/02 03:54:34;;;;;;;39.80;12.20;;;;;;;21.29;67.40;98864.34;5102867;28;20163;-75
2021/07/02 03:57:11;;;;;;;23.15;12.52;;;;;;;21.30;67.79;98865.97;5103656;28;20059;-75
2021/07/02 03:59:42;;;;;;;23.05;10.75;;;;;;;21.22;67.82;98864.44;5092871;28;20035;-75
2021/07/02 04:02:07;;;;;;;23.65;12.20;;;;;;;21.38;67.74;98866.69;5107924;28;20473;-75
2021/07/02 04:04:37;;;;;;;25.20;11.07;;;;;;;21.37;67.80;98860.22;5110887;28;20109;-75
2021/07/02 04:07:07;;;;;;;20.98;10.02;;;;;;;21.40;67.70;98858.53;5102488;28;20107;-75
2021/07/02 04:09:33;;;;;;;22.23;9.40;;;;;;;21.45;67.54;98860.94;5093291;28;20160;-75
2021/07/02 04:11:59;;;;;;;18.10;9.93;;;;;;;21.55;67.49;98862.03;5095732;28;20024;-75
2021/07/02 04:14:26;;;;;;;16.05;8.90;;;;;;;21.60;67.28;98865.22;5094574;28;20046;-75
2021/07/02 04:16:51;;;;;;;18.55;9.88;;;;;;;21.63;66.54;98863.56;5104678;28;20024;-75
2021/07/02 04:19:17;;;;;;;18.30;8.90;;;;;;;21.71;66.77;98859.41;5110526;28;20035;-75
2021/07/02 04:21:42;;;;;;;19.15;9.52;;;;;;;21.85;66.32;98861.25;5112324;28;20080;-76
2021/07/02 04:24:08;;;;;;;17.42;10.23;;;;;;;21.92;65.56;98863.22;5100988;28;20032;-75
2021/07/02 04:26:33;;;;;;;18.40;9.50;;;;;;;22.04;64.96;98870.38;5103935;28;20023;-75
2021/07/02 04:28:59;;;;;;;19.73;9.60;;;;;;;21.96;65.18;98866.81;5103684;28;20059;-75
2021/07/02 04:31:25;;;;;;;15.50;8.63;;;;;;;22.08;64.63;98884.53;5101765;28;20093;-75
2021/07/02 04:33:50;;;;;;;17.83;9.13;;;;;;;22.06;65.21;98872.78;5108516;28;20031;-75
2021/07/02 04:36:16;;;;;;;17.70;8.80;;;;;;;22.15;64.55;98875.91;5095100;28;20063;-75
2021/07/02 04:38:42;;;;;;;15.45;8.15;;;;;;;22.14;64.32;98885.69;5092216;28;20486;-75
2021/07/02 04:41:09;;;;;;;15.43;8.90;;;;;;;22.28;63.48;98887.53;5096874;28;20031;-75
2021/07/02 04:43:35;;;;;;;16.88;9.00;;;;;;;22.42;62.58;98887.31;5108002;28;20104;-76
2021/07/02 04:46:00;;;;;;;19.98;8.45;;;;;;;22.41;63.74;98891.41;5108808;28;20101;-76
2021/07/02 04:48:25;;;;;;;18.23;8.77;;;;;;;22.44;63.88;98895.41;5110163;28;20254;-75
2021/07/02 04:50:51;;;;;;;23.48;8.73;;;;;;;22.52;63.42;98890.47;5107772;28;20035;-75
2021/07/02 04:53:18;;;;;;;22.33;9.15;;;;;;;22.53;63.73;98894.91;5123411;27;20485;-75
2021/07/02 04:55:44;;;;;;;21.80;9.88;;;;;;;22.62;63.61;98885.81;5099864;28;20516;-76
2021/07/02 04:58:09;;;;;;;32.40;10.50;;;;;;;22.71;62.52;98892.56;5104629;28;20044;-74
2021/07/02 05:00:35;;;;;;;16.40;8.77;;;;;;;22.74;63.23;98899.47;5112721;27;20092;-75
2021/07/02 05:03:00;;;;;;;16.02;9.18;;;;;;;22.90;63.79;98909.38;5113421;28;20024;-75
2021/07/02 05:05:26;;;;;;;17.67;7.88;;;;;;;23.03;62.18;98910.34;5111996;28;20436;-75
2021/07/02 05:07:51;;;;;;;20.13;9.55;;;;;;;23.04;62.09;98902.63;5113426;28;20084;-76
2021/07/02 05:10:17;;;;;;;19.27;8.82;;;;;;;23.11;61.38;98905.34;5100540;27;20036;-78
2021/07/02 05:12:42;;;;;;;17.25;10.07;;;;;;;23.12;60.88;98902.06;5093487;28;20028;-75
2021/07/02 05:15:10;;;;;;;24.38;9.35;;;;;;;23.20;62.09;98907.63;5093851;28;20122;-76
2021/07/02 05:17:36;;;;;;;16.45;8.98;;;;;;;23.25;63.16;98909.97;5091577;28;20023;-75
2021/07/02 05:20:02;;;;;;;14.95;8.50;;;;;;;23.27;61.77;98902.63;5095618;28;20417;-76
2021/07/02 05:22:29;;;;;;;16.05;7.57;;;;;;;23.26;61.36;98901.00;5092186;28;20425;-75
2021/07/02 05:24:55;;;;;;;43.28;9.50;;;;;;;23.28;62.29;98904.25;5093021;28;20032;-74
2021/07/02 05:27:20;;;;;;;13.35;9.15;;;;;;;23.44;61.10;98910.50;5104607;27;20031;-75
2021/07/02 05:29:46;;;;;;;15.48;9.38;;;;;;;23.41;61.73;98912.97;5122816;27;20042;-77
2021/07/02 05:32:12;;;;;;;18.02;8.75;;;;;;;23.44;61.65;98910.50;5111624;28;20035;-75
2021/07/02 05:34:38;;;;;;;14.38;8.93;;;;;;;23.36;61.37;98913.47;5112058;28;20036;-75
2021/07/02 05:37:04;;;;;;;14.18;8.13;;;;;;;23.53;61.38;98910.69;5106395;27;20058;-75
2021/07/02 05:39:30;;;;;;;15.55;8.10;;;;;;;23.55;60.47;98913.94;5109344;28;20034;-75
2021/07/02 05:41:55;;;;;;;18.58;8.57;;;;;;;23.53;60.53;98920.06;5110765;28;20031;-75
2021/07/02 05:44:21;;;;;;;19.67;9.35;;;;;;;23.54;61.00;98923.75;5111314;28;20064;-75
2021/07/02 05:46:47;;;;;;;16.05;8.10;;;;;;;23.56;61.50;98933.47;5103074;27;20489;-75
2021/07/02 05:49:13;;;;;;;18.05;9.10;;;;;;;23.67;60.18;98927.56;5106897;28;20081;-75
2021/07/02 05:51:39;;;;;;;19.88;9.60;;;;;;;23.83;60.86;98928.88;5102268;28;20390;-76
2021/07/02 05:54:05;;;;;;;16.35;9.40;;;;;;;23.81;58.94;98934.22;5098241;28;20020;-77
2021/07/02 05:56:33;;;;;;;16.88;9.40;;;;;;;23.79;57.58;98928.94;5100400;28;20477;-77
2021/07/02 05:59:00;;;;;;;27.13;14.10;;;;;;;23.82;58.73;98932.97;5102082;28;20112;-77
2021/07/02 06:01:26;;;;;;;28.73;11.93;;;;;;;23.88;59.04;98930.41;5108309;28;20104;-77
2021/07/02 06:03:52;;;;;;;17.58;9.20;;;;;;;24.04;58.59;98932.56;5106786;27;20036;-77
2021/07/02 06:06:21;;;;;;;14.50;9.20;;;;;;;23.84;58.32;98934.16;5100776;28;20085;-77
2021/07/02 06:08:47;;;;;;;15.63;8.82;;;;;;;23.91;59.49;98941.75;5096902;28;20024;-77
2021/07/02 06:11:13;;;;;;;17.63;8.52;;;;;;;23.95;59.36;98939.63;5094675;28;20028;-77
2021/07/02 06:13:39;;;;;;;18.50;9.25;;;;;;;24.23;59.04;98939.50;5100660;27;20405;-77
2021/07/02 06:16:05;;;;;;;16.23;8.43;;;;;;;24.13;58.02;98940.53;5090280;28;20038;-77
2021/07/02 06:18:31;;;;;;;19.45;8.43;;;;;;;24.28;58.53;98946.75;5103229;28;20417;-77
2021/07/02 06:20:57;;;;;;;18.38;7.90;;;;;;;24.36;57.93;98948.16;5106950;28;20030;-77
2021/07/02 06:23:24;;;;;;;11.40;7.60;;;;;;;24.43;58.82;98947.19;5097942;28;20129;-77
2021/07/02 06:25:50;;;;;;;20.25;7.97;;;;;;;24.66;56.72;98946.28;5092107;28;20048;-76
2021/07/02 06:28:16;;;;;;;22.80;7.72;;;;;;;24.59;56.60;98955.81;5092871;28;20070;-75
2021/07/02 06:30:43;;;;;;;9.00;6.38;;;;;;;24.69;55.65;98951.09;5100985;28;20038;-76
2021/07/02 06:33:09;;;;;;;16.42;6.47;;;;;;;24.60;55.42;98954.56;5102171;28;20028;-75
2021/07/02 06:35:35;;;;;;;18.38;7.80;;;;;;;24.61;57.32;98952.50;5093202;28;20051;-75
2021/07/02 06:38:01;;;;;;;18.20;9.38;;;;;;;24.68;57.31;98958.06;5092174;28;20486;-76
2021/07/02 06:40:26;;;;;;;14.95;8.07;;;;;;;24.70;58.00;98955.56;5096923;28;20405;-76
2021/07/02 06:42:53;;;;;;;13.27;7.80;;;;;;;24.87;57.20;98947.03;5087638;28;20051;-76
2021/07/02 06:45:19;;;;;;;12.68;7.78;;;;;;;25.18;56.05;98946.66;5108747;28;20433;-76
2021/07/02 06:48:05;;;;;;;12.55;6.20;;;;;;;25.17;56.91;98937.28;5106126;28;20509;-76
2021/07/02 06:50:33;;;;;;;13.07;7.30;;;;;;;25.41;54.25;98941.97;5099301;27;20485;-75
2021/07/02 06:53:00;;;;;;;14.52;5.60;;;;;;;25.47;52.26;98952.44;5103581;28;20562;-76
2021/07/02 06:55:26;;;;;;;9.32;5.45;;;;;;;25.42;50.83;98943.59;5091755;28;20028;-75
2021/07/02 06:57:53;;;;;;;13.15;5.30;;;;;;;25.46;51.22;98936.50;5100833;28;20035;-76
2021/07/02 07:00:19;;;;;;;12.20;4.57;;;;;;;25.29;51.21;98938.59;5102312;28;20438;-76
2021/07/02 07:02:46;;;;;;;12.57;5.78;;;;;;;25.43;52.23;98943.16;5111263;28;20030;-77
2021/07/02 07:05:12;;;;;;;17.65;5.05;;;;;;;25.42;49.59;98937.88;5111423;28;20096;-76
2021/07/02 07:07:37;;;;;;;10.82;5.78;;;;;;;25.58;50.36;98940.75;5106061;28;20043;-76
2021/07/02 07:10:04;;;;;;;11.23;4.40;;;;;;;25.62;49.23;98935.72;5132157;27;20057;-75
2021/07/02 07:12:30;;;;;;;10.32;5.00;;;;;;;25.53;49.56;98938.41;5109319;27;20074;-76
2021/07/02 07:14:55;;;;;;;7.30;5.05;;;;;;;25.68;49.86;98935.13;5110320;28;20074;-76
2021/07/02 07:17:21;;;;;;;8.25;4.45;;;;;;;25.65;49.14;98929.06;5104805;28;20032;-76
2021/07/02 07:19:47;;;;;;;6.72;5.03;;;;;;;25.71;49.36;98940.78;5109844;28;20529;-74
2021/07/02 07:22:13;;;;;;;13.57;4.55;;;;;;;25.91;49.50;98937.75;5109968;28;20030;-76
2021/07/02 07:24:38;;;;;;;8.30;4.10;;;;;;;25.82;48.65;98931.84;5110650;28;20028;-75
2021/07/02 07:27:04;;;;;;;11.52;5.22;;;;;;;25.92;48.21;98927.88;5106685;28;20032;-76
2021/07/02 07:29:30;;;;;;;8.68;4.40;;;;;;;26.01;47.95;98932.16;5108997;28;20489;-76
2021/07/02 07:31:56;;;;;;;15.00;4.72;;;;;;;26.10;48.27;98929.44;5107385;28;20468;-76
2021/07/02 07:34:27;;;;;;;7.03;4.90;;;;;;;26.15;46.90;98925.19;5104827;28;20020;-75
2021/07/02 07:36:56;;;;;;;23.15;5.47;;;;;;;26.27;46.41;98930.19;5108757;28;20078;-73
2021/07/02 07:39:22;;;;;;;12.55;4.22;;;;;;;26.34;46.68;98929.16;5110871;28;20028;-78
2021/07/02 07:41:48;;;;;;;9.07;5.30;;;;;;;26.49;46.99;98938.91;5110536;28;20032;-86
2021/07/02 07:44:13;;;;;;;13.68;4.43;;;;;;;26.61;48.70;98937.31;5103648;28;20080;-77
2021/07/02 07:46:41;;;;;;;10.02;4.60;;;;;;;26.70;48.01;98939.50;5110515;28;20039;-75
2021/07/02 07:49:06;;;;;;;18.50;4.25;;;;;;;26.65;45.81;98937.19;5112826;28;20028;-74
2021/07/02 07:51:38;;;;;;;12.90;4.07;;;;;;;26.72;46.64;98942.69;5115062;28;20035;-75
2021/07/02 07:54:03;;;;;;;5.78;4.30;;;;;;;26.76;45.84;98945.44;5118614;27;20042;-75
2021/07/02 07:56:30;;;;;;;11.25;4.45;;;;;;;26.78;47.20;98935.09;5114606;28;20031;-73
2021/07/02 07:58:56;;;;;;;8.40;4.45;;;;;;;26.88;45.87;98938.13;5107336;28;20016;-73
2021/07/02 08:01:22;;;;;;;14.57;4.75;;;;;;;26.82;44.65;98940.72;5113151;28;20043;-75
2021/07/02 08:03:48;;;;;;;14.68;4.50;;;;;;;26.94;45.33;98930.53;5110256;28;20051;-78
2021/07/02 08:06:14;;;;;;;8.30;4.63;;;;;;;27.11;47.08;98933.25;5104299;28;20062;-78
2021/07/02 08:08:39;;;;;;;12.15;4.68;;;;;;;27.08;44.89;98939.94;5114595;28;20479;-76
2021/07/02 08:11:05;;;;;;;6.95;4.07;;;;;;;27.25;44.90;98938.50;5107241;28;20043;-77
2021/07/02 08:13:30;;;;;;;7.30;4.60;;;;;;;27.29;45.54;98932.63;5112876;28;20058;-77
2021/07/02 08:15:57;;;;;;;6.45;3.80;;;;;;;27.25;44.62;98932.75;5126617;27;20133;-75
2021/07/02 08:18:23;;;;;;;6.90;4.32;;;;;;;27.29;45.83;98936.31;5114184;28;20042;-76
2021/07/02 08:20:48;;;;;;;9.18;4.47;;;;;;;27.26;45.31;98927.84;5108474;28;20031;-76
2021/07/02 08:23:14;;;;;;;24.08;4.60;;;;;;;27.18;44.90;98928.06;5117059;27;20031;-72
2021/07/02 08:25:39;;;;;;;13.57;5.82;;;;;;;27.47;44.81;98921.34;5124735;27;20039;-74
2021/07/02 08:30:50;;;;;;;9.05;4.78;;;;;;;27.26;44.30;98914.28;5105964;28;20055;-76
2021/07/02 08:33:18;;;;;;;7.97;4.90;;;;;;;27.42;45.72;98912.50;5103780;28;20414;-83
2021/07/02 08:35:45;;;;;;;25.23;6.00;;;;;;;27.33;46.06;98916.91;5103802;28;20104;-76
2021/07/02 08:38:12;;;;;;;8.00;4.60;;;;;;;27.33;45.24;98911.16;5107248;28;20082;-73
2021/07/02 08:40:37;;;;;;;29.88;6.35;;;;;;;27.52;44.69;98911.34;5113693;28;20073;-73
2021/07/02 08:43:03;;;;;;;8.98;4.65;;;;;;;27.79;44.06;98915.72;5113692;28;20047;-75
2021/07/02 08:45:28;;;;;;;10.88;4.88;;;;;;;27.63;43.12;98916.69;5113582;28;20030;-76
2021/07/02 08:47:55;;;;;;;7.57;4.85;;;;;;;27.56;43.33;98916.94;5107355;28;20042;-78
2021/07/02 08:50:22;;;;;;;13.60;5.22;;;;;;;27.89;45.30;98908.75;5112077;28;20500;-76
2021/07/02 08:52:48;;;;;;;13.27;5.70;;;;;;;28.11;43.18;98912.88;5115221;27;20045;-74
2021/07/02 08:55:14;;;;;;;11.45;5.97;;;;;;;28.21;42.95;98908.00;5118814;27;20027;-77
2021/07/02 08:57:40;;;;;;;18.05;6.90;;;;;;;28.02;42.18;98914.41;5107647;28;20040;-72
2021/07/02 09:00:07;;;;;;;9.90;6.07;;;;;;;28.15;41.37;98911.47;5112981;28;20027;-75
2021/07/02 09:02:35;;;;;;;9.23;5.30;;;;;;;28.35;42.07;98898.81;5113402;27;20036;-73
2021/07/02 09:05:35;;;;;;;9.13;6.40;;;;;;;28.33;40.57;98901.34;5112913;28;20106;-73
2021/07/02 09:08:10;;;;;;;15.95;5.22;;;;;;;28.33;42.06;98898.47;5108337;28;20084;-72
2021/07/02 09:10:36;;;;;;;12.60;6.78;;;;;;;28.46;42.57;98901.25;5103212;28;20073;-74
2021/07/02 09:13:02;;;;;;;5.85;4.43;;;;;;;28.45;40.22;98911.97;5113210;28;20458;-79
2021/07/02 09:15:28;;;;;;;5.63;4.35;;;;;;;28.21;40.20;98905.94;5111019;28;20036;-76
2021/07/02 09:17:55;;;;;;;10.98;4.63;;;;;;;28.26;40.83;98899.56;5113070;27;20504;-73
2021/07/02 09:20:24;;;;;;;16.42;4.65;;;;;;;28.52;40.69;98904.31;5105619;28;20039;-72
2021/07/02 09:22:50;;;;;;;11.85;4.90;;;;;;;28.59;40.13;98898.25;5111430;28;20093;-73
2021/07/02 09:25:50;;;;;;;13.40;4.70;;;;;;;28.49;40.25;98902.41;5106786;28;20036;-73
2021/07/02 09:28:18;;;;;;;7.78;4.22;;;;;;;28.48;40.90;98900.78;5085310;28;20413;-73
2021/07/02 09:30:44;;;;;;;10.52;4.20;;;;;;;28.49;40.34;98888.03;5112830;28;20032;-72
2021/07/02 09:33:16;;;;;;;17.17;5.03;;;;;;;28.55;40.22;98889.81;5106129;27;20023;-72
2021/07/02 09:35:45;;;;;;;6.90;3.80;;;;;;;28.53;39.90;98889.44;5105141;28;20062;-72
2021/07/02 09:38:12;;;;;;;6.07;3.90;;;;;;;28.62;40.61;98879.25;5111323;28;20123;-73
2021/07/02 09:40:38;;;;;;;10.82;4.25;;;;;;;28.93;40.12;98875.56;5112756;28;20517;-74
2021/07/02 09:43:05;;;;;;;7.25;4.00;;;;;;;28.91;39.84;98873.16;5103364;27;20020;-73
2021/07/02 09:45:33;;;;;;;5.88;4.78;;;;;;;28.96;39.58;98866.78;5118571;27;20084;-74
2021/07/02 09:48:09;;;;;;;9.00;4.32;;;;;;;28.76;39.97;98872.13;5119935;27;20036;-73
2021/07/02 09:50:36;;;;;;;7.78;4.30;;;;;;;28.50;40.44;98870.28;5110630;27;20016;-74
2021/07/02 09:53:10;;;;;;;4.85;3.97;;;;;;;28.61;39.98;98861.22;5107281;28;20030;-74
2021/07/02 09:55:43;;;;;;;8.45;4.63;;;;;;;28.60;40.63;98853.88;5112188;28;20031;-73
2021/07/02 09:58:16;;;;;;;8.23;4.10;;;;;;;28.72;40.54;98860.75;5112737;28;20102;-73
2021/07/02 10:00:48;;;;;;;11.77;4.95;;;;;;;29.07;41.08;98859.72;5105475;28;20035;-73
2021/07/02 10:03:24;;;;;;;10.00;4.45;;;;;;;28.90;40.24;98848.53;5114388;27;20488;-73
2021/07/02 10:06:04;;;;;;;5.57;4.03;;;;;;;29.04;40.97;98847.09;5112035;27;20028;-72
2021/07/02 10:08:38;;;;;;;;;;;;;;;29.32;41.90;98846.31;5118935;27;20036;-71
2021/07/02 10:11:06;;;;;;;8.52;4.20;;;;;;;29.42;39.47;98854.47;5110396;28;19916;-73
2021/07/02 10:13:37;;;;;;;7.13;4.30;;;;;;;29.27;40.46;98844.88;5109401;28;20020;-76
2021/07/02 10:16:05;;;;;;;9.07;4.32;;;;;;;29.25;38.39;98848.22;5108451;28;20030;-76
2021/07/02 10:18:33;;;;;;;7.78;4.05;;;;;;;29.21;39.35;98855.44;5113642;27;20023;-75
2021/07/02 10:21:01;;;;;;;9.25;4.18;;;;;;;29.24;39.53;98849.53;5110735;27;20012;-76
2021/07/02 10:23:32;;;;;;;5.90;3.95;;;;;;;29.43;38.57;98855.28;5109444;28;20058;-76
2021/07/02 10:25:59;;;;;;;5.97;4.30;;;;;;;29.32;37.03;98843.41;5108263;28;20031;-75
2021/07/02 10:28:25;;;;;;;8.32;4.68;;;;;;;29.47;37.25;98850.19;5109526;28;20516;-74
2021/07/02 10:30:52;;;;;;;9.15;4.15;;;;;;;29.32;37.46;98857.81;5109453;28;20031;-77
2021/07/02 10:33:20;;;;;;;7.38;3.95;;;;;;;29.48;36.52;98854.66;5107312;28;20055;-77
2021/07/02 10:35:52;;;;;;;8.18;3.90;;;;;;;29.58;36.32;98846.03;5109817;28;20075;-78
2021/07/02 10:38:18;;;;;;;8.10;4.07;;;;;;;29.64;33.67;98846.94;5110110;27;20134;-79
2021/07/02 10:40:45;;;;;;;4.93;3.88;;;;;;;29.58;35.39;98843.91;5110055;28;20050;-79
2021/07/02 10:43:22;;;;;;;5.40;3.95;;;;;;;29.63;37.05;98849.06;5111184;28;20086;-79
2021/07/02 10:46:16;;;;;;;6.70;4.32;;;;;;;29.65;36.54;98852.25;5102165;27;20477;-77
2021/07/02 10:48:51;;;;;;;10.98;3.92;;;;;;;29.82;37.07;98849.81;5111485;27;20016;-78
2021/07/02 10:51:34;;;;;;;5.35;4.20;;;;;;;30.09;36.83;98841.59;5103509;27;20039;-76
2021/07/02 10:54:23;;;;;;;4.75;3.75;;;;;;;30.05;36.86;98835.19;5110909;28;20035;-79
2021/07/02 10:56:58;;;;;;;7.18;4.28;;;;;;;30.09;35.33;98830.06;5109133;27;20072;-76
2021/07/02 10:59:40;;;;;;;4.82;4.28;;;;;;;30.17;35.61;98825.53;5109762;28;20019;-78
2021/07/02 11:02:09;;;;;;;9.40;4.13;;;;;;;29.95;34.40;98817.91;5111016;28;20028;-76
2021/07/02 11:04:37;;;;;;;5.20;4.15;;;;;;;29.92;34.89;98812.31;5111207;28;20028;-76
2021/07/02 11:07:23;;;;;;;9.30;5.13;;;;;;;29.88;36.11;98809.63;5101044;28;20028;-78
2021/07/02 11:09:53;;;;;;;6.65;4.57;;;;;;;30.10;35.66;98805.69;5103201;27;20028;-78
2021/07/02 11:12:22;;;;;;;6.65;4.60;;;;;;;30.14;34.52;98811.28;5105957;28;20031;-76
2021/07/02 11:15:07;;;;;;;14.45;6.15;;;;;;;29.90;35.10;98809.94;5109504;28;20051;-75
2021/07/02 11:17:32;;;;;;;9.10;4.53;;;;;;;29.45;35.50;98818.19;5108750;28;20110;-77
2021/07/02 11:22:35;;;;;;;5.35;4.10;;;;;;;29.61;35.88;98817.03;5110856;28;20426;-77
2021/07/02 11:25:05;;;;;;;7.25;4.68;;;;;;;29.73;34.90;98803.72;5110950;28;20026;-77
2021/07/02 11:27:40;;;;;;;8.27;5.20;;;;;;;29.85;33.42;98801.91;5107580;28;20412;-78
2021/07/02 11:30:24;;;;;;;6.55;5.32;;;;;;;30.00;33.76;98799.16;5109284;28;20020;-76